<?xml version="1.0" encoding="UTF-8" standalone="no" ?>
<gpx xmlns="http://www.topografix.com/GPX/1/1" xmlns:xsi="http://www.w3.org/2001/XMLSchema-instance" xsi:schemaLocation="http://www.topografix.com/GPX/1/1 http://www.topografix.com/GPX/1/1/gpx.xsd" version="1.1" creator="VisuGPX - https://www.visugpx.com">
  <metadata>
    <name>2023-12-04-46-Vers-mas de balmes</name>
    <desc><![CDATA[Randonnée de 8 km et une belle bosse pour ce parcours, départ le long du vers avant la bosse passage par les hameaux de Balmes et Richard]]></desc>
  </metadata>
  <trk>
    <name><![CDATA[Vers rando douce 04-12-2023-18014612]]></name>
    <trkseg>
      <trkpt lat="44.48557" lon="1.55514">
        <ele>132</ele>
        <time>2023-11-30T07:45:02Z</time>
      </trkpt>
      <trkpt lat="44.48545" lon="1.55488">
        <ele>130</ele>
        <time>2023-11-30T07:45:31Z</time>
      </trkpt>
      <trkpt lat="44.48561" lon="1.55496">
        <ele>132</ele>
        <time>2023-11-30T07:45:54Z</time>
      </trkpt>
      <trkpt lat="44.48579" lon="1.55486">
        <ele>134</ele>
        <time>2023-11-30T07:46:20Z</time>
      </trkpt>
      <trkpt lat="44.48577" lon="1.55484">
        <ele>134</ele>
        <time>2023-11-30T07:46:23Z</time>
      </trkpt>
      <trkpt lat="44.48594" lon="1.55477">
        <ele>138</ele>
        <time>2023-11-30T07:46:47Z</time>
      </trkpt>
      <trkpt lat="44.48612" lon="1.55461">
        <ele>141</ele>
        <time>2023-11-30T07:47:15Z</time>
      </trkpt>
      <trkpt lat="44.48607" lon="1.55435">
        <ele>138</ele>
        <time>2023-11-30T07:47:41Z</time>
      </trkpt>
      <trkpt lat="44.48598" lon="1.55395">
        <ele>135</ele>
        <time>2023-11-30T07:48:21Z</time>
      </trkpt>
      <trkpt lat="44.48621" lon="1.55387">
        <ele>136</ele>
        <time>2023-11-30T07:48:53Z</time>
      </trkpt>
      <trkpt lat="44.48651" lon="1.55371">
        <ele>136</ele>
        <time>2023-11-30T07:49:35Z</time>
      </trkpt>
      <trkpt lat="44.48674" lon="1.55349">
        <ele>135</ele>
        <time>2023-11-30T07:50:13Z</time>
      </trkpt>
      <trkpt lat="44.48714" lon="1.55353">
        <ele>137</ele>
        <time>2023-11-30T07:51:06Z</time>
      </trkpt>
      <trkpt lat="44.48756" lon="1.55355">
        <ele>139</ele>
        <time>2023-11-30T07:52:02Z</time>
      </trkpt>
      <trkpt lat="44.48798" lon="1.5538">
        <ele>140</ele>
        <time>2023-11-30T07:53:03Z</time>
      </trkpt>
      <trkpt lat="44.48821" lon="1.55387">
        <ele>139</ele>
        <time>2023-11-30T07:53:34Z</time>
      </trkpt>
      <trkpt lat="44.48823" lon="1.55405">
        <ele>140</ele>
        <time>2023-11-30T07:53:52Z</time>
      </trkpt>
      <trkpt lat="44.4882" lon="1.55423">
        <ele>143</ele>
        <time>2023-11-30T07:54:09Z</time>
      </trkpt>
      <trkpt lat="44.48848" lon="1.55467">
        <ele>148</ele>
        <time>2023-11-30T07:55:05Z</time>
      </trkpt>
      <trkpt lat="44.4887" lon="1.55505">
        <ele>150</ele>
        <time>2023-11-30T07:55:52Z</time>
      </trkpt>
      <trkpt lat="44.48885" lon="1.5554">
        <ele>154</ele>
        <time>2023-11-30T07:56:31Z</time>
      </trkpt>
      <trkpt lat="44.48917" lon="1.55593">
        <ele>154</ele>
        <time>2023-11-30T07:57:37Z</time>
      </trkpt>
      <trkpt lat="44.4895" lon="1.55633">
        <ele>156</ele>
        <time>2023-11-30T07:58:35Z</time>
      </trkpt>
      <trkpt lat="44.48979" lon="1.55669">
        <ele>154</ele>
        <time>2023-11-30T07:59:27Z</time>
      </trkpt>
      <trkpt lat="44.49016" lon="1.55692">
        <ele>151</ele>
        <time>2023-11-30T08:00:21Z</time>
      </trkpt>
      <trkpt lat="44.4905" lon="1.5572">
        <ele>152</ele>
        <time>2023-11-30T08:01:14Z</time>
      </trkpt>
      <trkpt lat="44.4908" lon="1.55748">
        <ele>150</ele>
        <time>2023-11-30T08:02:02Z</time>
      </trkpt>
      <trkpt lat="44.49115" lon="1.55776">
        <ele>157</ele>
        <time>2023-11-30T08:02:55Z</time>
      </trkpt>
      <trkpt lat="44.49161" lon="1.55771">
        <ele>153</ele>
        <time>2023-11-30T08:03:57Z</time>
      </trkpt>
      <trkpt lat="44.49207" lon="1.55765">
        <ele>155</ele>
        <time>2023-11-30T08:04:59Z</time>
      </trkpt>
      <trkpt lat="44.49247" lon="1.55761">
        <ele>159</ele>
        <time>2023-11-30T08:05:52Z</time>
      </trkpt>
      <trkpt lat="44.49296" lon="1.55731">
        <ele>160</ele>
        <time>2023-11-30T08:07:04Z</time>
      </trkpt>
      <trkpt lat="44.49337" lon="1.55706">
        <ele>160</ele>
        <time>2023-11-30T08:08:03Z</time>
      </trkpt>
      <trkpt lat="44.49376" lon="1.55683">
        <ele>161</ele>
        <time>2023-11-30T08:09:00Z</time>
      </trkpt>
      <trkpt lat="44.49415" lon="1.55662">
        <ele>164</ele>
        <time>2023-11-30T08:09:55Z</time>
      </trkpt>
      <trkpt lat="44.49427" lon="1.55623">
        <ele>159</ele>
        <time>2023-11-30T08:10:36Z</time>
      </trkpt>
      <trkpt lat="44.49437" lon="1.55584">
        <ele>152</ele>
        <time>2023-11-30T08:11:15Z</time>
      </trkpt>
      <trkpt lat="44.49472" lon="1.55551">
        <ele>156</ele>
        <time>2023-11-30T08:12:12Z</time>
      </trkpt>
      <trkpt lat="44.49507" lon="1.55509">
        <ele>155</ele>
        <time>2023-11-30T08:13:13Z</time>
      </trkpt>
      <trkpt lat="44.49546" lon="1.5546">
        <ele>152</ele>
        <time>2023-11-30T08:14:23Z</time>
      </trkpt>
      <trkpt lat="44.49581" lon="1.55418">
        <ele>149</ele>
        <time>2023-11-30T08:15:24Z</time>
      </trkpt>
      <trkpt lat="44.49602" lon="1.55447">
        <ele>151</ele>
        <time>2023-11-30T08:16:04Z</time>
      </trkpt>
      <trkpt lat="44.49617" lon="1.55477">
        <ele>153</ele>
        <time>2023-11-30T08:16:39Z</time>
      </trkpt>
      <trkpt lat="44.49638" lon="1.55512">
        <ele>155</ele>
        <time>2023-11-30T08:17:22Z</time>
      </trkpt>
      <trkpt lat="44.49657" lon="1.55543">
        <ele>156</ele>
        <time>2023-11-30T08:18:01Z</time>
      </trkpt>
      <trkpt lat="44.49664" lon="1.55563">
        <ele>158</ele>
        <time>2023-11-30T08:18:22Z</time>
      </trkpt>
      <trkpt lat="44.49689" lon="1.55565">
        <ele>154</ele>
        <time>2023-11-30T08:18:56Z</time>
      </trkpt>
      <trkpt lat="44.49705" lon="1.55585">
        <ele>153</ele>
        <time>2023-11-30T08:19:24Z</time>
      </trkpt>
      <trkpt lat="44.4971" lon="1.55651">
        <ele>158</ele>
        <time>2023-11-30T08:20:28Z</time>
      </trkpt>
      <trkpt lat="44.49721" lon="1.55692">
        <ele>157</ele>
        <time>2023-11-30T08:21:09Z</time>
      </trkpt>
      <trkpt lat="44.49737" lon="1.55761">
        <ele>157</ele>
        <time>2023-11-30T08:22:18Z</time>
      </trkpt>
      <trkpt lat="44.49744" lon="1.558">
        <ele>159</ele>
        <time>2023-11-30T08:22:57Z</time>
      </trkpt>
      <trkpt lat="44.49775" lon="1.55835">
        <ele>157</ele>
        <time>2023-11-30T08:23:50Z</time>
      </trkpt>
      <trkpt lat="44.49806" lon="1.55865">
        <ele>157</ele>
        <time>2023-11-30T08:24:40Z</time>
      </trkpt>
      <trkpt lat="44.49838" lon="1.55896">
        <ele>154</ele>
        <time>2023-11-30T08:25:32Z</time>
      </trkpt>
      <trkpt lat="44.49889" lon="1.55897">
        <ele>154</ele>
        <time>2023-11-30T08:26:40Z</time>
      </trkpt>
      <trkpt lat="44.49932" lon="1.55898">
        <ele>157</ele>
        <time>2023-11-30T08:27:37Z</time>
      </trkpt>
      <trkpt lat="44.49982" lon="1.55897">
        <ele>163</ele>
        <time>2023-11-30T08:28:44Z</time>
      </trkpt>
      <trkpt lat="44.50014" lon="1.55869">
        <ele>161</ele>
        <time>2023-11-30T08:29:34Z</time>
      </trkpt>
      <trkpt lat="44.50045" lon="1.55832">
        <ele>159</ele>
        <time>2023-11-30T08:30:29Z</time>
      </trkpt>
      <trkpt lat="44.5008" lon="1.55787">
        <ele>160</ele>
        <time>2023-11-30T08:31:32Z</time>
      </trkpt>
      <trkpt lat="44.50097" lon="1.55741">
        <ele>157</ele>
        <time>2023-11-30T08:32:21Z</time>
      </trkpt>
      <trkpt lat="44.50122" lon="1.55667">
        <ele>153</ele>
        <time>2023-11-30T08:33:39Z</time>
      </trkpt>
      <trkpt lat="44.50086" lon="1.55679">
        <ele>149</ele>
        <time>2023-11-30T08:34:29Z</time>
      </trkpt>
      <trkpt lat="44.50065" lon="1.55689">
        <ele>148</ele>
        <time>2023-11-30T08:34:58Z</time>
      </trkpt>
      <trkpt lat="44.50037" lon="1.55702">
        <ele>147</ele>
        <time>2023-11-30T08:35:38Z</time>
      </trkpt>
      <trkpt lat="44.50023" lon="1.55686">
        <ele>145</ele>
        <time>2023-11-30T08:36:02Z</time>
      </trkpt>
      <trkpt lat="44.50006" lon="1.5565">
        <ele>145</ele>
        <time>2023-11-30T08:36:43Z</time>
      </trkpt>
      <trkpt lat="44.49989" lon="1.55602">
        <ele>152</ele>
        <time>2023-11-30T08:37:34Z</time>
      </trkpt>
      <trkpt lat="44.49969" lon="1.55619">
        <ele>151</ele>
        <time>2023-11-30T08:38:05Z</time>
      </trkpt>
      <trkpt lat="44.49943" lon="1.5561">
        <ele>154</ele>
        <time>2023-11-30T08:38:41Z</time>
      </trkpt>
      <trkpt lat="44.49905" lon="1.55612">
        <ele>154</ele>
        <time>2023-11-30T08:39:32Z</time>
      </trkpt>
      <trkpt lat="44.4987" lon="1.55612">
        <ele>150</ele>
        <time>2023-11-30T08:40:18Z</time>
      </trkpt>
      <trkpt lat="44.49843" lon="1.55593">
        <ele>149</ele>
        <time>2023-11-30T08:40:59Z</time>
      </trkpt>
      <trkpt lat="44.49828" lon="1.55585">
        <ele>149</ele>
        <time>2023-11-30T08:41:20Z</time>
      </trkpt>
      <trkpt lat="44.49808" lon="1.5554">
        <ele>153</ele>
        <time>2023-11-30T08:42:10Z</time>
      </trkpt>
      <trkpt lat="44.49819" lon="1.55532">
        <ele>155</ele>
        <time>2023-11-30T08:42:27Z</time>
      </trkpt>
      <trkpt lat="44.4983" lon="1.5555">
        <ele>154</ele>
        <time>2023-11-30T08:42:50Z</time>
      </trkpt>
      <trkpt lat="44.49848" lon="1.55568">
        <ele>154</ele>
        <time>2023-11-30T08:43:19Z</time>
      </trkpt>
      <trkpt lat="44.49875" lon="1.55561">
        <ele>160</ele>
        <time>2023-11-30T08:43:56Z</time>
      </trkpt>
      <trkpt lat="44.49863" lon="1.55543">
        <ele>162</ele>
        <time>2023-11-30T08:44:19Z</time>
      </trkpt>
      <trkpt lat="44.4991" lon="1.55546">
        <ele>171</ele>
        <time>2023-11-30T08:45:22Z</time>
      </trkpt>
      <trkpt lat="44.49889" lon="1.55513">
        <ele>175</ele>
        <time>2023-11-30T08:46:04Z</time>
      </trkpt>
      <trkpt lat="44.49877" lon="1.55478">
        <ele>180</ele>
        <time>2023-11-30T08:46:41Z</time>
      </trkpt>
      <trkpt lat="44.49865" lon="1.55447">
        <ele>183</ele>
        <time>2023-11-30T08:47:15Z</time>
      </trkpt>
      <trkpt lat="44.49854" lon="1.55412">
        <ele>184</ele>
        <time>2023-11-30T08:47:51Z</time>
      </trkpt>
      <trkpt lat="44.49895" lon="1.55425">
        <ele>198</ele>
        <time>2023-11-30T08:48:47Z</time>
      </trkpt>
      <trkpt lat="44.49932" lon="1.55437">
        <ele>204</ele>
        <time>2023-11-30T08:49:38Z</time>
      </trkpt>
      <trkpt lat="44.49964" lon="1.55449">
        <ele>202</ele>
        <time>2023-11-30T08:50:22Z</time>
      </trkpt>
      <trkpt lat="44.49982" lon="1.5546">
        <ele>199</ele>
        <time>2023-11-30T08:50:48Z</time>
      </trkpt>
      <trkpt lat="44.49987" lon="1.55432">
        <ele>209</ele>
        <time>2023-11-30T08:51:16Z</time>
      </trkpt>
      <trkpt lat="44.49967" lon="1.55409">
        <ele>214</ele>
        <time>2023-11-30T08:51:50Z</time>
      </trkpt>
      <trkpt lat="44.49952" lon="1.55381">
        <ele>219</ele>
        <time>2023-11-30T08:52:23Z</time>
      </trkpt>
      <trkpt lat="44.49943" lon="1.55356">
        <ele>222</ele>
        <time>2023-11-30T08:52:50Z</time>
      </trkpt>
      <trkpt lat="44.4997" lon="1.55367">
        <ele>225</ele>
        <time>2023-11-30T08:53:28Z</time>
      </trkpt>
      <trkpt lat="44.49982" lon="1.55349">
        <ele>232</ele>
        <time>2023-11-30T08:53:51Z</time>
      </trkpt>
      <trkpt lat="44.49979" lon="1.55332">
        <ele>236</ele>
        <time>2023-11-30T08:54:08Z</time>
      </trkpt>
      <trkpt lat="44.49968" lon="1.55317">
        <ele>234</ele>
        <time>2023-11-30T08:54:28Z</time>
      </trkpt>
      <trkpt lat="44.49974" lon="1.55274">
        <ele>238</ele>
        <time>2023-11-30T08:55:10Z</time>
      </trkpt>
      <trkpt lat="44.49977" lon="1.55249">
        <ele>241</ele>
        <time>2023-11-30T08:55:34Z</time>
      </trkpt>
      <trkpt lat="44.50003" lon="1.5521">
        <ele>250</ele>
        <time>2023-11-30T08:56:25Z</time>
      </trkpt>
      <trkpt lat="44.5002" lon="1.55156">
        <ele>252</ele>
        <time>2023-11-30T08:57:21Z</time>
      </trkpt>
      <trkpt lat="44.50034" lon="1.55117">
        <ele>257</ele>
        <time>2023-11-30T08:58:03Z</time>
      </trkpt>
      <trkpt lat="44.5004" lon="1.55092">
        <ele>260</ele>
        <time>2023-11-30T08:58:28Z</time>
      </trkpt>
      <trkpt lat="44.50042" lon="1.55041">
        <ele>267</ele>
        <time>2023-11-30T08:59:16Z</time>
      </trkpt>
      <trkpt lat="44.5004" lon="1.54986">
        <ele>272</ele>
        <time>2023-11-30T09:00:09Z</time>
      </trkpt>
      <trkpt lat="44.5006" lon="1.54943">
        <ele>278</ele>
        <time>2023-11-30T09:00:58Z</time>
      </trkpt>
      <trkpt lat="44.50079" lon="1.54901">
        <ele>285</ele>
        <time>2023-11-30T09:01:45Z</time>
      </trkpt>
      <trkpt lat="44.5009" lon="1.54864">
        <ele>291</ele>
        <time>2023-11-30T09:02:23Z</time>
      </trkpt>
      <trkpt lat="44.50086" lon="1.54812">
        <ele>295</ele>
        <time>2023-11-30T09:03:13Z</time>
      </trkpt>
      <trkpt lat="44.50086" lon="1.54777">
        <ele>298</ele>
        <time>2023-11-30T09:03:46Z</time>
      </trkpt>
      <trkpt lat="44.50076" lon="1.54732">
        <ele>299</ele>
        <time>2023-11-30T09:04:31Z</time>
      </trkpt>
      <trkpt lat="44.50063" lon="1.54673">
        <ele>301</ele>
        <time>2023-11-30T09:05:30Z</time>
      </trkpt>
      <trkpt lat="44.50046" lon="1.54614">
        <ele>301</ele>
        <time>2023-11-30T09:06:30Z</time>
      </trkpt>
      <trkpt lat="44.5003" lon="1.546">
        <ele>302</ele>
        <time>2023-11-30T09:06:56Z</time>
      </trkpt>
      <trkpt lat="44.5" lon="1.54591">
        <ele>302</ele>
        <time>2023-11-30T09:07:37Z</time>
      </trkpt>
      <trkpt lat="44.49984" lon="1.54587">
        <ele>303</ele>
        <time>2023-11-30T09:07:58Z</time>
      </trkpt>
      <trkpt lat="44.49953" lon="1.54563">
        <ele>306</ele>
        <time>2023-11-30T09:08:45Z</time>
      </trkpt>
      <trkpt lat="44.49938" lon="1.54514">
        <ele>310</ele>
        <time>2023-11-30T09:09:36Z</time>
      </trkpt>
      <trkpt lat="44.49918" lon="1.54449">
        <ele>313</ele>
        <time>2023-11-30T09:10:44Z</time>
      </trkpt>
      <trkpt lat="44.49903" lon="1.54413">
        <ele>314</ele>
        <time>2023-11-30T09:11:23Z</time>
      </trkpt>
      <trkpt lat="44.49876" lon="1.54378">
        <ele>314</ele>
        <time>2023-11-30T09:12:12Z</time>
      </trkpt>
      <trkpt lat="44.49846" lon="1.54333">
        <ele>313</ele>
        <time>2023-11-30T09:13:11Z</time>
      </trkpt>
      <trkpt lat="44.49824" lon="1.54308">
        <ele>313</ele>
        <time>2023-11-30T09:13:49Z</time>
      </trkpt>
      <trkpt lat="44.49796" lon="1.54274">
        <ele>312</ele>
        <time>2023-11-30T09:14:38Z</time>
      </trkpt>
      <trkpt lat="44.49773" lon="1.5423">
        <ele>311</ele>
        <time>2023-11-30T09:15:30Z</time>
      </trkpt>
      <trkpt lat="44.49752" lon="1.54196">
        <ele>309</ele>
        <time>2023-11-30T09:16:13Z</time>
      </trkpt>
      <trkpt lat="44.49734" lon="1.5417">
        <ele>309</ele>
        <time>2023-11-30T09:16:47Z</time>
      </trkpt>
      <trkpt lat="44.49711" lon="1.54146">
        <ele>311</ele>
        <time>2023-11-30T09:17:26Z</time>
      </trkpt>
      <trkpt lat="44.49699" lon="1.54135">
        <ele>312</ele>
        <time>2023-11-30T09:17:45Z</time>
      </trkpt>
      <trkpt lat="44.49688" lon="1.54107">
        <ele>313</ele>
        <time>2023-11-30T09:18:15Z</time>
      </trkpt>
      <trkpt lat="44.49684" lon="1.54078">
        <ele>313</ele>
        <time>2023-11-30T09:18:43Z</time>
      </trkpt>
      <trkpt lat="44.49687" lon="1.54047">
        <ele>313</ele>
        <time>2023-11-30T09:19:13Z</time>
      </trkpt>
      <trkpt lat="44.49704" lon="1.54008">
        <ele>311</ele>
        <time>2023-11-30T09:19:57Z</time>
      </trkpt>
      <trkpt lat="44.49717" lon="1.53959">
        <ele>311</ele>
        <time>2023-11-30T09:20:46Z</time>
      </trkpt>
      <trkpt lat="44.4972" lon="1.53932">
        <ele>311</ele>
        <time>2023-11-30T09:21:12Z</time>
      </trkpt>
      <trkpt lat="44.49712" lon="1.53893">
        <ele>312</ele>
        <time>2023-11-30T09:21:51Z</time>
      </trkpt>
      <trkpt lat="44.497" lon="1.53851">
        <ele>310</ele>
        <time>2023-11-30T09:22:34Z</time>
      </trkpt>
      <trkpt lat="44.49698" lon="1.53783">
        <ele>307</ele>
        <time>2023-11-30T09:23:39Z</time>
      </trkpt>
      <trkpt lat="44.49701" lon="1.53713">
        <ele>305</ele>
        <time>2023-11-30T09:24:46Z</time>
      </trkpt>
      <trkpt lat="44.49698" lon="1.53653">
        <ele>304</ele>
        <time>2023-11-30T09:25:43Z</time>
      </trkpt>
      <trkpt lat="44.497" lon="1.53587">
        <ele>305</ele>
        <time>2023-11-30T09:26:46Z</time>
      </trkpt>
      <trkpt lat="44.49698" lon="1.53536">
        <ele>303</ele>
        <time>2023-11-30T09:27:34Z</time>
      </trkpt>
      <trkpt lat="44.49698" lon="1.53495">
        <ele>301</ele>
        <time>2023-11-30T09:28:13Z</time>
      </trkpt>
      <trkpt lat="44.49692" lon="1.53474">
        <ele>300</ele>
        <time>2023-11-30T09:28:35Z</time>
      </trkpt>
      <trkpt lat="44.49675" lon="1.5347">
        <ele>301</ele>
        <time>2023-11-30T09:28:58Z</time>
      </trkpt>
      <trkpt lat="44.49633" lon="1.5347">
        <ele>300</ele>
        <time>2023-11-30T09:29:54Z</time>
      </trkpt>
      <trkpt lat="44.49604" lon="1.53471">
        <ele>299</ele>
        <time>2023-11-30T09:30:33Z</time>
      </trkpt>
      <trkpt lat="44.49571" lon="1.53498">
        <ele>299</ele>
        <time>2023-11-30T09:31:24Z</time>
      </trkpt>
      <trkpt lat="44.49532" lon="1.53509">
        <ele>294</ele>
        <time>2023-11-30T09:32:17Z</time>
      </trkpt>
      <trkpt lat="44.49512" lon="1.53539">
        <ele>291</ele>
        <time>2023-11-30T09:32:56Z</time>
      </trkpt>
      <trkpt lat="44.49493" lon="1.53561">
        <ele>290</ele>
        <time>2023-11-30T09:33:29Z</time>
      </trkpt>
      <trkpt lat="44.49465" lon="1.53577">
        <ele>289</ele>
        <time>2023-11-30T09:34:09Z</time>
      </trkpt>
      <trkpt lat="44.4942" lon="1.53603">
        <ele>289</ele>
        <time>2023-11-30T09:35:14Z</time>
      </trkpt>
      <trkpt lat="44.49397" lon="1.53613">
        <ele>289</ele>
        <time>2023-11-30T09:35:46Z</time>
      </trkpt>
      <trkpt lat="44.49352" lon="1.53639">
        <ele>289</ele>
        <time>2023-11-30T09:36:51Z</time>
      </trkpt>
      <trkpt lat="44.4932" lon="1.53658">
        <ele>287</ele>
        <time>2023-11-30T09:37:38Z</time>
      </trkpt>
      <trkpt lat="44.49282" lon="1.53676">
        <ele>285</ele>
        <time>2023-11-30T09:38:31Z</time>
      </trkpt>
      <trkpt lat="44.49259" lon="1.53696">
        <ele>283</ele>
        <time>2023-11-30T09:39:07Z</time>
      </trkpt>
      <trkpt lat="44.49213" lon="1.53702">
        <ele>280</ele>
        <time>2023-11-30T09:40:09Z</time>
      </trkpt>
      <trkpt lat="44.49182" lon="1.53712">
        <ele>279</ele>
        <time>2023-11-30T09:40:51Z</time>
      </trkpt>
      <trkpt lat="44.49146" lon="1.53727">
        <ele>278</ele>
        <time>2023-11-30T09:41:41Z</time>
      </trkpt>
      <trkpt lat="44.49118" lon="1.53758">
        <ele>278</ele>
        <time>2023-11-30T09:42:29Z</time>
      </trkpt>
      <trkpt lat="44.49091" lon="1.53771">
        <ele>277</ele>
        <time>2023-11-30T09:43:07Z</time>
      </trkpt>
      <trkpt lat="44.4906" lon="1.53785">
        <ele>276</ele>
        <time>2023-11-30T09:43:51Z</time>
      </trkpt>
      <trkpt lat="44.49046" lon="1.53793">
        <ele>276</ele>
        <time>2023-11-30T09:44:11Z</time>
      </trkpt>
      <trkpt lat="44.49032" lon="1.53804">
        <ele>276</ele>
        <time>2023-11-30T09:44:32Z</time>
      </trkpt>
      <trkpt lat="44.49031" lon="1.53837">
        <ele>276</ele>
        <time>2023-11-30T09:45:04Z</time>
      </trkpt>
      <trkpt lat="44.49033" lon="1.53896">
        <ele>270</ele>
        <time>2023-11-30T09:46:00Z</time>
      </trkpt>
      <trkpt lat="44.49025" lon="1.53935">
        <ele>268</ele>
        <time>2023-11-30T09:46:38Z</time>
      </trkpt>
      <trkpt lat="44.49018" lon="1.5398">
        <ele>265</ele>
        <time>2023-11-30T09:47:22Z</time>
      </trkpt>
      <trkpt lat="44.49022" lon="1.54021">
        <ele>262</ele>
        <time>2023-11-30T09:48:02Z</time>
      </trkpt>
      <trkpt lat="44.49033" lon="1.54062">
        <ele>261</ele>
        <time>2023-11-30T09:48:43Z</time>
      </trkpt>
      <trkpt lat="44.49034" lon="1.54092">
        <ele>260</ele>
        <time>2023-11-30T09:49:12Z</time>
      </trkpt>
      <trkpt lat="44.49021" lon="1.54142">
        <ele>257</ele>
        <time>2023-11-30T09:50:03Z</time>
      </trkpt>
      <trkpt lat="44.49013" lon="1.54194">
        <ele>253</ele>
        <time>2023-11-30T09:50:53Z</time>
      </trkpt>
      <trkpt lat="44.4902" lon="1.54232">
        <ele>251</ele>
        <time>2023-11-30T09:51:31Z</time>
      </trkpt>
      <trkpt lat="44.49021" lon="1.54271">
        <ele>250</ele>
        <time>2023-11-30T09:52:08Z</time>
      </trkpt>
      <trkpt lat="44.49011" lon="1.54317">
        <ele>249</ele>
        <time>2023-11-30T09:52:54Z</time>
      </trkpt>
      <trkpt lat="44.48997" lon="1.54345">
        <ele>246</ele>
        <time>2023-11-30T09:53:26Z</time>
      </trkpt>
      <trkpt lat="44.48992" lon="1.54379">
        <ele>245</ele>
        <time>2023-11-30T09:53:59Z</time>
      </trkpt>
      <trkpt lat="44.49005" lon="1.54403">
        <ele>245</ele>
        <time>2023-11-30T09:54:28Z</time>
      </trkpt>
      <trkpt lat="44.49013" lon="1.5443">
        <ele>247</ele>
        <time>2023-11-30T09:54:56Z</time>
      </trkpt>
      <trkpt lat="44.49007" lon="1.54456">
        <ele>247</ele>
        <time>2023-11-30T09:55:22Z</time>
      </trkpt>
      <trkpt lat="44.48988" lon="1.54475">
        <ele>245</ele>
        <time>2023-11-30T09:55:53Z</time>
      </trkpt>
      <trkpt lat="44.4897" lon="1.54499">
        <ele>244</ele>
        <time>2023-11-30T09:56:26Z</time>
      </trkpt>
      <trkpt lat="44.48956" lon="1.54549">
        <ele>246</ele>
        <time>2023-11-30T09:57:17Z</time>
      </trkpt>
      <trkpt lat="44.48944" lon="1.54589">
        <ele>247</ele>
        <time>2023-11-30T09:57:58Z</time>
      </trkpt>
      <trkpt lat="44.48943" lon="1.54627">
        <ele>249</ele>
        <time>2023-11-30T09:58:35Z</time>
      </trkpt>
      <trkpt lat="44.48941" lon="1.54659">
        <ele>250</ele>
        <time>2023-11-30T09:59:05Z</time>
      </trkpt>
      <trkpt lat="44.4893" lon="1.54705">
        <ele>249</ele>
        <time>2023-11-30T09:59:51Z</time>
      </trkpt>
      <trkpt lat="44.48924" lon="1.54743">
        <ele>249</ele>
        <time>2023-11-30T10:00:28Z</time>
      </trkpt>
      <trkpt lat="44.48912" lon="1.54785">
        <ele>249</ele>
        <time>2023-11-30T10:01:12Z</time>
      </trkpt>
      <trkpt lat="44.48902" lon="1.54819">
        <ele>249</ele>
        <time>2023-11-30T10:01:47Z</time>
      </trkpt>
      <trkpt lat="44.48891" lon="1.54836">
        <ele>249</ele>
        <time>2023-11-30T10:02:08Z</time>
      </trkpt>
      <trkpt lat="44.48894" lon="1.54858">
        <ele>248</ele>
        <time>2023-11-30T10:02:30Z</time>
      </trkpt>
      <trkpt lat="44.48872" lon="1.54898">
        <ele>246</ele>
        <time>2023-11-30T10:03:18Z</time>
      </trkpt>
      <trkpt lat="44.48842" lon="1.54932">
        <ele>243</ele>
        <time>2023-11-30T10:04:09Z</time>
      </trkpt>
      <trkpt lat="44.4882" lon="1.54962">
        <ele>239</ele>
        <time>2023-11-30T10:04:50Z</time>
      </trkpt>
      <trkpt lat="44.48795" lon="1.54985">
        <ele>236</ele>
        <time>2023-11-30T10:05:30Z</time>
      </trkpt>
      <trkpt lat="44.48766" lon="1.5501">
        <ele>233</ele>
        <time>2023-11-30T10:06:16Z</time>
      </trkpt>
      <trkpt lat="44.48739" lon="1.55027">
        <ele>228</ele>
        <time>2023-11-30T10:06:55Z</time>
      </trkpt>
      <trkpt lat="44.48708" lon="1.5504">
        <ele>222</ele>
        <time>2023-11-30T10:07:38Z</time>
      </trkpt>
      <trkpt lat="44.48678" lon="1.55051">
        <ele>217</ele>
        <time>2023-11-30T10:08:20Z</time>
      </trkpt>
      <trkpt lat="44.48657" lon="1.55055">
        <ele>213</ele>
        <time>2023-11-30T10:08:48Z</time>
      </trkpt>
      <trkpt lat="44.48636" lon="1.55072">
        <ele>205</ele>
        <time>2023-11-30T10:09:20Z</time>
      </trkpt>
      <trkpt lat="44.48606" lon="1.55068">
        <ele>200</ele>
        <time>2023-11-30T10:10:00Z</time>
      </trkpt>
      <trkpt lat="44.48585" lon="1.55058">
        <ele>199</ele>
        <time>2023-11-30T10:10:30Z</time>
      </trkpt>
      <trkpt lat="44.4856" lon="1.55051">
        <ele>197</ele>
        <time>2023-11-30T10:11:04Z</time>
      </trkpt>
      <trkpt lat="44.48536" lon="1.55048">
        <ele>194</ele>
        <time>2023-11-30T10:11:36Z</time>
      </trkpt>
      <trkpt lat="44.48556" lon="1.55062">
        <ele>193</ele>
        <time>2023-11-30T10:12:06Z</time>
      </trkpt>
      <trkpt lat="44.48529" lon="1.55066">
        <ele>187</ele>
        <time>2023-11-30T10:12:42Z</time>
      </trkpt>
      <trkpt lat="44.4855" lon="1.55083">
        <ele>185</ele>
        <time>2023-11-30T10:13:15Z</time>
      </trkpt>
      <trkpt lat="44.48563" lon="1.55109">
        <ele>177</ele>
        <time>2023-11-30T10:13:45Z</time>
      </trkpt>
      <trkpt lat="44.48583" lon="1.55145">
        <ele>168</ele>
        <time>2023-11-30T10:14:28Z</time>
      </trkpt>
      <trkpt lat="44.48557" lon="1.55138">
        <ele>165</ele>
        <time>2023-11-30T10:15:04Z</time>
      </trkpt>
      <trkpt lat="44.48532" lon="1.55137">
        <ele>160</ele>
        <time>2023-11-30T10:15:37Z</time>
      </trkpt>
      <trkpt lat="44.48502" lon="1.55138">
        <ele>154</ele>
        <time>2023-11-30T10:16:17Z</time>
      </trkpt>
      <trkpt lat="44.48488" lon="1.5513">
        <ele>156</ele>
        <time>2023-11-30T10:16:37Z</time>
      </trkpt>
      <trkpt lat="44.48473" lon="1.55138">
        <ele>152</ele>
        <time>2023-11-30T10:16:59Z</time>
      </trkpt>
      <trkpt lat="44.48502" lon="1.55158">
        <ele>146</ele>
        <time>2023-11-30T10:17:42Z</time>
      </trkpt>
      <trkpt lat="44.48526" lon="1.55176">
        <ele>146</ele>
        <time>2023-11-30T10:18:18Z</time>
      </trkpt>
      <trkpt lat="44.48539" lon="1.55186">
        <ele>146</ele>
        <time>2023-11-30T10:18:38Z</time>
      </trkpt>
      <trkpt lat="44.48541" lon="1.55218">
        <ele>139</ele>
        <time>2023-11-30T10:19:09Z</time>
      </trkpt>
      <trkpt lat="44.48521" lon="1.55234">
        <ele>134</ele>
        <time>2023-11-30T10:19:39Z</time>
      </trkpt>
      <trkpt lat="44.48505" lon="1.55248">
        <ele>131</ele>
        <time>2023-11-30T10:20:04Z</time>
      </trkpt>
      <trkpt lat="44.48481" lon="1.55248">
        <ele>129</ele>
        <time>2023-11-30T10:20:36Z</time>
      </trkpt>
      <trkpt lat="44.48473" lon="1.55252">
        <ele>129</ele>
        <time>2023-11-30T10:20:48Z</time>
      </trkpt>
      <trkpt lat="44.48465" lon="1.5527">
        <ele>127</ele>
        <time>2023-11-30T10:21:08Z</time>
      </trkpt>
      <trkpt lat="44.48457" lon="1.55286">
        <ele>126</ele>
        <time>2023-11-30T10:21:27Z</time>
      </trkpt>
      <trkpt lat="44.48444" lon="1.55304">
        <ele>125</ele>
        <time>2023-11-30T10:21:51Z</time>
      </trkpt>
      <trkpt lat="44.48465" lon="1.55326">
        <ele>125</ele>
        <time>2023-11-30T10:22:26Z</time>
      </trkpt>
      <trkpt lat="44.48495" lon="1.55343">
        <ele>126</ele>
        <time>2023-11-30T10:23:09Z</time>
      </trkpt>
      <trkpt lat="44.48513" lon="1.55385">
        <ele>127</ele>
        <time>2023-11-30T10:23:56Z</time>
      </trkpt>
      <trkpt lat="44.48537" lon="1.55401">
        <ele>129</ele>
        <time>2023-11-30T10:24:31Z</time>
      </trkpt>
      <trkpt lat="44.48545" lon="1.55426">
        <ele>130</ele>
        <time>2023-11-30T10:24:57Z</time>
      </trkpt>
      <trkpt lat="44.48551" lon="1.55456">
        <ele>131</ele>
        <time>2023-11-30T10:25:27Z</time>
      </trkpt>
      <trkpt lat="44.48555" lon="1.5548">
        <ele>131</ele>
        <time>2023-11-30T10:25:50Z</time>
      </trkpt>
      <trkpt lat="44.48557" lon="1.55536">
        <ele>132</ele>
        <time>2023-11-30T10:26:44Z</time>
      </trkpt>
    </trkseg>
  </trk>
</gpx>